createdAt,value
2022-11-18T00:01:21.619Z,75.70
2022-11-18T00:03:49.553Z,75.60
2022-11-18T00:06:23.249Z,75.50
2022-11-18T00:08:51.582Z,75.50
2022-11-18T00:11:40.703Z,75.40
2022-11-18T00:14:23.292Z,75.50
2022-11-18T00:16:51.822Z,75.50
2022-11-18T00:19:22.583Z,75.20
2022-11-18T00:21:49.955Z,75.20
2022-11-18T00:24:16.802Z,75.10
2022-11-18T00:26:43.590Z,75.10
2022-11-18T00:29:11.326Z,75.20
2022-11-18T00:31:39.248Z,75.20
2022-11-18T00:34:06.992Z,75.20
2022-11-18T00:36:33.838Z,75.00
2022-11-18T00:39:00.631Z,75.00
2022-11-18T00:41:47.473Z,75.00
2022-11-18T00:44:14.254Z,75.00
2022-11-18T00:46:41.780Z,75.10
2022-11-18T00:49:09.939Z,75.20
2022-11-18T00:51:36.837Z,75.10
2022-11-18T00:54:04.187Z,74.80
2022-11-18T00:56:30.881Z,74.70
2022-11-18T00:58:57.624Z,74.60
2022-11-18T01:01:25.184Z,74.60
2022-11-18T01:03:52.315Z,74.70
2022-11-18T01:06:19.296Z,74.60
2022-11-18T01:08:45.991Z,74.60
2022-11-18T01:11:31.124Z,75.20
2022-11-18T01:13:57.946Z,74.40
2022-11-18T01:16:27.879Z,74.40
2022-11-18T01:18:55.644Z,74.40
2022-11-18T01:21:22.871Z,74.20
2022-11-18T01:23:49.677Z,74.10
2022-11-18T01:26:18.287Z,74.00
2022-11-18T01:28:45.773Z,74.20
2022-11-18T01:31:19.249Z,74.20
2022-11-18T01:33:47.136Z,74.10
2022-11-18T01:36:24.648Z,73.90
2022-11-18T01:38:52.412Z,74.00
2022-11-18T01:41:22.636Z,74.10
2022-11-18T01:44:06.105Z,74.10
2022-11-18T01:46:34.326Z,74.60
2022-11-18T01:49:07.712Z,73.90
2022-11-18T01:51:46.752Z,73.70
2022-11-18T01:54:23.488Z,73.70
2022-11-18T01:56:58.975Z,73.80
2022-11-18T01:59:31.324Z,73.70
2022-11-18T02:02:01.170Z,73.70
2022-11-18T02:04:27.939Z,73.60
2022-11-18T02:06:55.509Z,73.50
2022-11-18T02:09:22.992Z,73.70
2022-11-18T02:11:56.557Z,73.80
2022-11-18T02:14:38.720Z,73.80
2022-11-18T02:17:46.643Z,73.90
2022-11-18T02:20:29.789Z,73.80
2022-11-18T02:23:39.405Z,73.80
2022-11-18T02:26:48.638Z,73.70
2022-11-18T02:29:28.448Z,73.70
2022-11-18T02:32:02.356Z,73.60
2022-11-18T02:35:27.889Z,73.60
2022-11-18T02:38:07.375Z,73.50
2022-11-18T02:40:52.258Z,72.80
2022-11-18T02:43:34.813Z,73.30
2022-11-18T02:46:09.958Z,73.40
2022-11-18T02:48:44.635Z,73.30
2022-11-18T02:51:15.983Z,73.50
2022-11-18T02:53:46.246Z,73.60
2022-11-18T02:56:15.428Z,73.60
2022-11-18T02:58:42.400Z,73.50
2022-11-18T03:01:21.088Z,73.40
2022-11-18T03:03:48.341Z,73.40
2022-11-18T03:06:37.634Z,73.50
2022-11-18T03:09:32.871Z,73.40
2022-11-18T03:12:16.469Z,73.50
2022-11-18T03:15:37.081Z,73.50
2022-11-18T03:18:25.215Z,73.60
2022-11-18T03:21:03.854Z,73.70
2022-11-18T03:23:54.059Z,73.80
2022-11-18T03:26:36.264Z,74.00
2022-11-18T03:29:20.860Z,74.10
2022-11-18T03:31:54.793Z,74.20
2022-11-18T03:34:35.972Z,74.30
2022-11-18T03:37:10.621Z,74.60
2022-11-18T03:39:46.788Z,74.70
2022-11-18T03:42:27.544Z,74.90
2022-11-18T03:45:06.935Z,75.00
2022-11-18T03:47:45.068Z,74.90
2022-11-18T03:50:22.634Z,75.00
2022-11-18T03:52:53.276Z,75.10
2022-11-18T03:55:32.433Z,75.20
2022-11-18T03:58:22.381Z,75.10
2022-11-18T04:01:04.749Z,75.00
2022-11-18T04:03:31.899Z,74.80
2022-11-18T04:06:24.658Z,74.70
2022-11-18T04:08:58.865Z,75.00
2022-11-18T04:11:56.785Z,75.00
2022-11-18T04:14:23.529Z,75.10
2022-11-18T04:16:55.463Z,74.90
2022-11-18T04:19:22.799Z,75.20
2022-11-18T04:21:50.463Z,75.20
2022-11-18T04:24:17.437Z,75.40
2022-11-18T04:26:44.848Z,75.50
2022-11-18T04:29:11.656Z,75.40
2022-11-18T04:31:38.384Z,75.50
2022-11-18T04:34:05.122Z,75.70
2022-11-18T04:36:32.007Z,75.60
2022-11-18T04:38:58.716Z,75.50
2022-11-18T04:41:45.415Z,75.60
2022-11-18T04:44:14.761Z,75.90
2022-11-18T04:46:43.478Z,76.00
2022-11-18T04:49:13.403Z,76.20
2022-11-18T04:51:42.281Z,76.40
2022-11-18T04:54:10.384Z,76.50
2022-11-18T04:56:37.490Z,76.60
2022-11-18T04:59:04.809Z,76.70
2022-11-18T05:01:32.040Z,76.90
2022-11-18T05:04:02.116Z,77.10
2022-11-18T05:06:29.728Z,77.20
2022-11-18T05:08:58.997Z,77.20
2022-11-18T05:11:50.817Z,77.10
2022-11-18T05:14:17.784Z,77.00
2022-11-18T05:16:44.785Z,76.80
2022-11-18T05:19:12.029Z,76.70
2022-11-18T05:21:39.230Z,76.70
2022-11-18T05:24:06.465Z,76.70
2022-11-18T05:26:33.430Z,76.80
2022-11-18T05:29:00.214Z,76.80
2022-11-18T05:31:27.382Z,76.80
2022-11-18T05:33:54.332Z,76.70
2022-11-18T05:36:22.484Z,75.80
2022-11-18T05:38:49.834Z,76.30
2022-11-18T05:41:37.562Z,76.30
2022-11-18T05:44:05.287Z,76.30
2022-11-18T05:46:32.638Z,76.00
2022-11-18T05:48:59.496Z,75.80
2022-11-18T05:51:26.268Z,75.70
2022-11-18T05:53:55.551Z,75.60
2022-11-18T05:56:46.381Z,75.60
2022-11-18T05:59:17.057Z,75.70
2022-11-18T06:02:03.518Z,75.70
2022-11-18T06:05:00.886Z,75.60
2022-11-18T06:07:42.452Z,75.60
2022-11-18T06:10:16.874Z,75.60
2022-11-18T06:12:49.707Z,75.70
2022-11-18T06:15:26.047Z,75.50
2022-11-18T06:18:00.485Z,75.30
2022-11-18T06:20:28.113Z,75.30
2022-11-18T06:22:57.972Z,75.20
2022-11-18T06:25:25.135Z,74.90
2022-11-18T06:27:56.299Z,74.80
2022-11-18T06:30:23.386Z,74.60
2022-11-18T06:32:50.261Z,74.60
2022-11-18T06:35:17.133Z,74.40
2022-11-18T06:37:43.936Z,74.20
2022-11-18T06:40:11.742Z,73.90
2022-11-18T06:42:57.042Z,73.70
2022-11-18T06:45:23.850Z,73.70
2022-11-18T06:47:50.665Z,73.70
2022-11-18T06:50:17.676Z,73.50
2022-11-18T06:52:44.399Z,73.20
2022-11-18T06:55:11.118Z,73.00
2022-11-18T06:57:37.833Z,73.20
2022-11-18T07:00:06.118Z,72.80
2022-11-18T07:02:35.579Z,72.70
2022-11-18T07:05:02.681Z,72.40
2022-11-18T07:07:29.507Z,72.00
2022-11-18T07:09:56.317Z,72.10
2022-11-18T07:12:23.180Z,71.60
2022-11-18T07:14:49.936Z,71.80
2022-11-18T07:17:16.666Z,71.80
2022-11-18T07:19:43.368Z,71.60
2022-11-18T07:22:10.155Z,71.80
2022-11-18T07:24:37.919Z,71.40
2022-11-18T07:27:04.681Z,71.60
2022-11-18T07:29:31.478Z,71.40
2022-11-18T07:31:58.192Z,71.40
2022-11-18T07:34:24.905Z,71.30
2022-11-18T07:36:51.714Z,71.20
2022-11-18T07:39:18.734Z,71.00
2022-11-18T07:41:45.657Z,71.00
2022-11-18T07:44:12.697Z,70.90
2022-11-18T07:46:39.741Z,71.70
2022-11-18T07:49:09.095Z,71.10
2022-11-18T07:51:40.098Z,71.00
2022-11-18T07:54:11.581Z,70.80
2022-11-18T07:56:38.657Z,70.20
2022-11-18T07:59:06.360Z,70.50
2022-11-18T08:01:33.242Z,69.90
2022-11-18T08:04:12.550Z,69.90
2022-11-18T08:06:40.024Z,70.00
2022-11-18T08:09:07.900Z,70.10
2022-11-18T08:11:35.301Z,69.80
2022-11-18T08:14:02.389Z,69.50
2022-11-18T08:16:29.782Z,69.20
2022-11-18T08:18:58.932Z,69.60
2022-11-18T08:21:25.685Z,69.60
2022-11-18T08:23:55.341Z,69.70
2022-11-18T08:26:23.258Z,69.80
2022-11-18T08:28:50.479Z,69.60
2022-11-18T08:31:25.229Z,69.30
2022-11-18T08:34:05.003Z,69.30
2022-11-18T08:36:35.103Z,69.10
2022-11-18T08:39:06.127Z,69.30
2022-11-18T08:41:36.980Z,69.50
2022-11-18T08:44:05.682Z,69.40
2022-11-18T08:46:32.479Z,69.40
2022-11-18T08:48:59.902Z,69.10
2022-11-18T08:51:26.841Z,69.20
2022-11-18T08:53:53.547Z,69.30
2022-11-18T08:56:23.121Z,69.30
2022-11-18T08:58:50.377Z,69.30
2022-11-18T09:01:17.404Z,69.40
2022-11-18T09:03:44.329Z,69.20
2022-11-18T09:06:17.257Z,68.80
2022-11-18T09:08:45.033Z,69.00
2022-11-18T09:11:18.326Z,69.00
2022-11-18T09:14:25.945Z,68.90
2022-11-18T09:16:35.436Z,68.50
2022-11-18T09:19:24.421Z,68.50
2022-11-18T09:21:49.350Z,68.80
2022-11-18T09:24:16.875Z,68.50
2022-11-18T09:26:44.222Z,68.90
2022-11-18T09:29:13.695Z,68.70
2022-11-18T09:31:40.434Z,68.90
2022-11-18T09:34:10.230Z,68.70
2022-11-18T09:36:37.356Z,68.80
2022-11-18T09:39:04.170Z,68.90
2022-11-18T09:41:47.545Z,69.30
2022-11-18T09:44:47.643Z,68.90
2022-11-18T09:47:31.852Z,68.70
2022-11-18T09:50:47.214Z,68.90
2022-11-18T09:53:20.612Z,68.90
2022-11-18T09:55:49.443Z,68.60
2022-11-18T09:58:29.391Z,68.40
2022-11-18T10:00:56.205Z,68.50
2022-11-18T10:03:32.925Z,68.20
2022-11-18T10:06:09.492Z,67.90
2022-11-18T10:09:05.630Z,67.80
2022-11-18T10:11:47.553Z,67.60
2022-11-18T10:14:45.343Z,68.00
2022-11-18T10:17:53.678Z,67.70
2022-11-18T10:20:57.916Z,67.50
2022-11-18T10:23:59.259Z,68.00
2022-11-18T10:26:39.624Z,68.10
2022-11-18T10:29:10.042Z,68.10
2022-11-18T10:31:40.282Z,68.10
2022-11-18T10:34:13.029Z,68.20
2022-11-18T10:36:40.691Z,68.10
2022-11-18T10:39:16.996Z,68.20
2022-11-18T10:41:49.701Z,68.10
2022-11-18T10:44:37.302Z,68.10
2022-11-18T10:47:32.821Z,68.00
2022-11-18T10:50:03.307Z,68.00
2022-11-18T10:52:30.668Z,68.10
2022-11-18T10:55:25.746Z,67.90
2022-11-18T10:58:01.724Z,67.20
2022-11-18T11:00:42.397Z,67.00
2022-11-18T11:03:25.011Z,67.70
2022-11-18T11:06:23.861Z,66.80
2022-11-18T11:09:13.332Z,67.30
2022-11-18T11:12:03.129Z,67.20
2022-11-18T11:14:43.609Z,67.30
2022-11-18T11:17:17.231Z,67.20
2022-11-18T11:20:03.358Z,67.40
2022-11-18T11:22:30.328Z,67.30
2022-11-18T11:24:57.314Z,67.40
2022-11-18T11:28:16.777Z,67.50
2022-11-18T11:31:46.517Z,67.40
2022-11-18T11:35:06.394Z,67.30
2022-11-18T11:37:55.903Z,67.10
2022-11-18T11:40:30.060Z,67.30
2022-11-18T11:43:45.664Z,67.50
2022-11-18T11:46:28.120Z,67.30
2022-11-18T11:49:17.097Z,67.70
2022-11-18T11:52:09.954Z,67.40
2022-11-18T11:55:05.488Z,66.30
2022-11-18T11:58:08.924Z,66.30
2022-11-18T12:00:49.446Z,66.40
2022-11-18T12:03:50.277Z,66.80
2022-11-18T12:06:18.770Z,66.60
2022-11-18T12:09:09.566Z,66.50
2022-11-18T12:12:27.928Z,66.40
2022-11-18T12:15:02.777Z,65.90
2022-11-18T12:17:44.919Z,66.30
2022-11-18T12:20:39.535Z,66.00
2022-11-18T12:23:16.009Z,66.00
2022-11-18T12:25:48.742Z,65.30
2022-11-18T12:28:49.064Z,65.70
2022-11-18T12:31:18.669Z,65.00
2022-11-18T12:33:54.984Z,65.50
2022-11-18T12:36:38.713Z,65.30
2022-11-18T12:39:23.855Z,65.40
2022-11-18T12:42:09.269Z,64.30
2022-11-18T12:44:39.221Z,64.00
2022-11-18T12:47:12.602Z,65.10
2022-11-18T12:49:45.392Z,64.80
2022-11-18T12:52:30.477Z,64.10
2022-11-18T12:55:01.938Z,63.70
2022-11-18T12:57:33.417Z,63.90
2022-11-18T13:00:23.340Z,63.90
2022-11-18T13:03:08.461Z,64.00
2022-11-18T13:05:35.535Z,63.70
2022-11-18T13:08:14.908Z,63.60
2022-11-18T13:11:15.867Z,63.70
2022-11-18T13:13:43.482Z,63.80
2022-11-18T13:16:43.572Z,63.80
2022-11-18T13:19:21.817Z,63.90
2022-11-18T13:22:14.195Z,64.40
2022-11-18T13:24:51.899Z,64.40
2022-11-18T13:28:20.398Z,64.60
2022-11-18T13:31:34.560Z,64.20
2022-11-18T13:34:20.260Z,64.60
2022-11-18T13:36:50.399Z,64.80
2022-11-18T13:39:32.719Z,64.80
2022-11-18T13:42:05.833Z,64.90
2022-11-18T13:44:38.106Z,64.90
2022-11-18T13:47:49.620Z,64.90
2022-11-18T13:50:37.837Z,64.50
2022-11-18T13:53:40.263Z,64.30
2022-11-18T13:56:20.358Z,64.50
2022-11-18T14:01:37.945Z,64.20
2022-11-18T14:04:15.723Z,64.20
2022-11-18T14:06:42.819Z,64.00
2022-11-18T14:09:28.892Z,63.80
2022-11-18T14:12:25.623Z,63.40
2022-11-18T14:14:52.475Z,63.70
2022-11-18T14:17:25.639Z,64.10
2022-11-18T14:19:58.915Z,64.40
2022-11-18T14:22:31.009Z,64.10
2022-11-18T14:25:15.487Z,63.20
2022-11-18T14:27:46.313Z,64.10
2022-11-18T14:30:38.087Z,64.10
2022-11-18T14:33:24.281Z,63.90
2022-11-18T14:35:58.889Z,64.00
2022-11-18T14:39:11.407Z,64.30
2022-11-18T14:41:49.941Z,64.90
2022-11-18T14:44:19.336Z,64.10
2022-11-18T14:47:00.474Z,64.20
2022-11-18T14:49:31.369Z,64.10
2022-11-18T14:52:02.449Z,64.20
2022-11-18T14:54:29.580Z,64.10
2022-11-18T14:57:02.132Z,64.20
2022-11-18T14:59:28.980Z,65.00
2022-11-18T15:01:56.666Z,64.00
2022-11-18T15:04:23.651Z,64.20
2022-11-18T15:06:50.637Z,64.30
2022-11-18T15:09:17.448Z,64.10
2022-11-18T15:11:44.759Z,63.90
2022-11-18T15:14:11.623Z,64.00
2022-11-18T15:16:38.335Z,64.10
2022-11-18T15:19:07.165Z,64.10
2022-11-18T15:21:33.904Z,64.00
2022-11-18T15:24:00.611Z,63.90
2022-11-18T15:26:38.313Z,63.90
2022-11-18T15:29:05.674Z,64.00
2022-11-18T15:31:32.594Z,63.90
2022-11-18T15:34:05.073Z,64.00
2022-11-18T15:36:33.283Z,63.50
2022-11-18T15:39:00.162Z,63.60
2022-11-18T15:41:29.559Z,63.80
2022-11-18T15:43:59.192Z,63.70
2022-11-18T15:46:30.045Z,63.30
2022-11-18T15:48:58.771Z,63.90
2022-11-18T15:51:28.648Z,64.00
2022-11-18T15:53:55.867Z,63.90
2022-11-18T15:56:30.527Z,63.90
2022-11-18T15:59:07.279Z,63.70
2022-11-18T16:01:47.018Z,63.80
2022-11-18T16:04:17.739Z,63.80
2022-11-18T16:06:45.504Z,63.90
2022-11-18T16:09:14.633Z,63.90
2022-11-18T16:12:00.593Z,63.80
2022-11-18T16:14:27.377Z,63.70
2022-11-18T16:16:56.641Z,63.70
2022-11-18T16:19:26.541Z,63.80
2022-11-18T16:21:56.822Z,63.80
2022-11-18T16:24:27.441Z,63.70
2022-11-18T16:26:54.427Z,63.80
2022-11-18T16:29:23.273Z,63.60
2022-11-18T16:31:52.469Z,63.80
2022-11-18T16:34:28.309Z,63.70
2022-11-18T16:37:02.425Z,63.70
2022-11-18T16:39:29.419Z,63.80
2022-11-18T16:42:08.262Z,63.80
2022-11-18T16:44:35.937Z,63.80
2022-11-18T16:47:05.342Z,63.80
2022-11-18T16:49:34.567Z,63.10
2022-11-18T16:52:01.431Z,63.90
2022-11-18T16:54:31.312Z,64.00
2022-11-18T16:56:59.494Z,64.10
2022-11-18T16:59:29.435Z,64.20
2022-11-18T17:01:59.575Z,64.10
2022-11-18T17:04:30.650Z,64.20
2022-11-18T17:07:00.775Z,64.20
2022-11-18T17:09:27.830Z,64.20
2022-11-18T17:11:56.149Z,64.10
2022-11-18T17:14:23.482Z,64.20
2022-11-18T17:16:52.027Z,64.20
2022-11-18T17:19:24.732Z,64.20
2022-11-18T17:21:52.179Z,64.20
2022-11-18T17:24:22.901Z,64.20
2022-11-18T17:26:52.179Z,64.10
2022-11-18T17:29:19.675Z,64.20
2022-11-18T17:31:46.613Z,64.20
2022-11-18T17:34:15.275Z,64.30
2022-11-18T17:36:43.315Z,64.40
2022-11-18T17:39:12.331Z,64.50
2022-11-18T17:41:58.098Z,64.60
2022-11-18T17:44:25.500Z,64.40
2022-11-18T17:46:52.281Z,64.40
2022-11-18T17:49:21.286Z,64.30
2022-11-18T17:51:48.565Z,64.30
2022-11-18T17:54:16.109Z,64.40
2022-11-18T17:56:43.411Z,64.40
2022-11-18T17:59:10.324Z,64.40
2022-11-18T18:01:37.127Z,64.40
2022-11-18T18:04:04.290Z,64.40
2022-11-18T18:06:31.114Z,64.50
2022-11-18T18:08:58.959Z,64.50
2022-11-18T18:11:27.142Z,64.50
2022-11-18T18:14:12.741Z,64.60
2022-11-18T18:16:50.870Z,64.60
2022-11-18T18:19:22.103Z,64.70
2022-11-18T18:21:49.772Z,64.70
2022-11-18T18:24:19.703Z,64.70
2022-11-18T18:26:46.818Z,64.70
2022-11-18T18:29:13.841Z,64.70
2022-11-18T18:31:41.581Z,64.80
2022-11-18T18:34:08.355Z,65.00
2022-11-18T18:36:35.581Z,64.80
2022-11-18T18:39:02.655Z,64.80
2022-11-18T18:41:30.521Z,64.80
2022-11-18T18:43:57.277Z,64.70
2022-11-18T18:46:29.620Z,64.00
2022-11-18T18:49:08.092Z,64.80
2022-11-18T18:51:46.570Z,64.60
2022-11-18T18:54:17.853Z,64.70
2022-11-18T18:56:45.232Z,64.80
2022-11-18T18:59:12.002Z,64.70
2022-11-18T19:01:39.368Z,64.70
2022-11-18T19:04:07.844Z,64.80
2022-11-18T19:06:59.432Z,64.80
2022-11-18T19:09:24.948Z,64.90
2022-11-18T19:12:11.981Z,65.00
2022-11-18T19:14:39.166Z,65.00
2022-11-18T19:17:10.737Z,65.60
2022-11-18T19:19:59.173Z,64.80
2022-11-18T19:22:29.294Z,64.80
2022-11-18T19:24:56.550Z,64.80
2022-11-18T19:27:23.563Z,64.80
2022-11-18T19:29:50.624Z,64.90
2022-11-18T19:32:17.370Z,64.80
2022-11-18T19:34:44.763Z,65.00
2022-11-18T19:37:11.557Z,64.90
2022-11-18T19:39:38.638Z,64.90
2022-11-18T19:42:06.029Z,65.00
2022-11-18T19:44:32.839Z,65.00
2022-11-18T19:46:59.546Z,64.90
2022-11-18T19:49:26.329Z,64.90
2022-11-18T19:51:53.080Z,65.00
2022-11-18T19:54:19.855Z,65.10
2022-11-18T19:56:46.601Z,65.10
2022-11-18T19:59:13.486Z,65.10
2022-11-18T20:01:41.011Z,65.20
2022-11-18T20:04:07.947Z,65.40
2022-11-18T20:06:36.383Z,65.30
2022-11-18T20:09:07.177Z,65.30
2022-11-18T20:11:34.768Z,65.30
2022-11-18T20:14:01.769Z,65.40
2022-11-18T20:16:28.512Z,65.30
2022-11-18T20:19:06.407Z,66.20
2022-11-18T20:21:36.174Z,65.40
2022-11-18T20:24:05.754Z,65.40
2022-11-18T20:26:38.531Z,65.40
2022-11-18T20:29:07.604Z,65.40
2022-11-18T20:31:36.323Z,65.40
2022-11-18T20:34:04.734Z,65.40
2022-11-18T20:36:36.185Z,65.40
2022-11-18T20:39:07.790Z,65.40
2022-11-18T20:41:36.532Z,65.40
2022-11-18T20:44:04.397Z,65.30
2022-11-18T20:46:31.350Z,65.30
2022-11-18T20:48:58.098Z,65.20
2022-11-18T20:51:27.992Z,65.30
2022-11-18T20:53:57.204Z,65.20
2022-11-18T20:56:26.808Z,65.10
2022-11-18T20:58:55.772Z,65.20
2022-11-18T21:01:28.821Z,65.20
2022-11-18T21:04:01.772Z,65.10
2022-11-18T21:06:32.633Z,65.20
2022-11-18T21:09:05.960Z,65.20
2022-11-18T21:11:37.095Z,65.30
2022-11-18T21:14:24.589Z,65.30
2022-11-18T21:17:00.407Z,65.30
2022-11-18T21:19:29.224Z,65.30
2022-11-18T21:21:57.035Z,65.30
2022-11-18T21:24:32.961Z,65.20
2022-11-18T21:27:02.725Z,65.20
2022-11-18T21:29:33.202Z,65.20
2022-11-18T21:32:01.535Z,65.30
2022-11-18T21:34:29.011Z,65.20
2022-11-18T21:36:55.778Z,65.20
2022-11-18T21:39:25.934Z,65.10
2022-11-18T21:41:56.414Z,65.10
2022-11-18T21:44:26.017Z,65.00
2022-11-18T21:46:52.897Z,65.00
2022-11-18T21:49:19.937Z,65.10
2022-11-18T21:51:46.863Z,65.10
2022-11-18T21:54:15.925Z,65.10
2022-11-18T21:56:42.818Z,65.10
2022-11-18T21:59:09.681Z,65.00
2022-11-18T22:01:36.384Z,65.20
2022-11-18T22:04:05.738Z,65.10
2022-11-18T22:06:34.404Z,65.10
2022-11-18T22:09:03.840Z,65.10
2022-11-18T22:11:30.825Z,65.10
2022-11-18T22:13:58.048Z,65.10
2022-11-18T22:16:26.658Z,65.10
2022-11-18T22:19:00.294Z,65.30
2022-11-18T22:21:29.281Z,65.40
2022-11-18T22:24:00.759Z,65.50
2022-11-18T22:26:28.677Z,65.70
2022-11-18T22:28:57.792Z,65.80
2022-11-18T22:31:26.833Z,65.90
2022-11-18T22:33:55.458Z,66.00
2022-11-18T22:36:26.096Z,66.10
2022-11-18T22:38:54.039Z,66.00
2022-11-18T22:41:46.387Z,66.00
2022-11-18T22:44:15.650Z,65.90
2022-11-18T22:46:44.809Z,65.80
2022-11-18T22:49:12.893Z,65.70
2022-11-18T22:51:40.861Z,65.80
2022-11-18T22:54:38.321Z,65.80
2022-11-18T22:56:56.196Z,65.90
2022-11-18T22:59:23.677Z,65.90
2022-11-18T23:01:51.990Z,66.00
2022-11-18T23:04:19.039Z,66.20
2022-11-18T23:06:45.800Z,66.30
2022-11-18T23:09:12.810Z,66.30
2022-11-18T23:11:58.362Z,66.50
2022-11-18T23:14:25.216Z,66.60
2022-11-18T23:16:52.038Z,66.60
2022-11-18T23:19:19.389Z,66.70
2022-11-18T23:21:46.799Z,66.70
2022-11-18T23:24:17.318Z,66.80
2022-11-18T23:26:45.106Z,66.90
2022-11-18T23:29:13.696Z,66.90
2022-11-18T23:31:42.994Z,67.10
2022-11-18T23:34:14.845Z,67.00
2022-11-18T23:36:42.006Z,67.10
2022-11-18T23:39:09.493Z,67.10
2022-11-18T23:41:36.896Z,67.10
2022-11-18T23:44:04.734Z,67.10
2022-11-18T23:46:32.654Z,67.10
2022-11-18T23:49:00.450Z,67.30
2022-11-18T23:51:27.232Z,67.30
2022-11-18T23:53:57.176Z,67.20
2022-11-18T23:56:27.021Z,67.40
2022-11-18T23:58:56.350Z,67.40
